sensor_id;sensor_type;location;lat;lon;timestamp;temperature;humidity
1812;DHT22;904;47.814;11.134;2022-07-18T00:01:19;16.80;62.50
1812;DHT22;904;47.814;11.134;2022-07-18T00:03:46;16.80;62.80
1812;DHT22;904;47.814;11.134;2022-07-18T00:06:13;16.90;63.20
1812;DHT22;904;47.814;11.134;2022-07-18T00:08:42;16.80;63.40
1812;DHT22;904;47.814;11.134;2022-07-18T00:11:10;16.60;63.60
1812;DHT22;904;47.814;11.134;2022-07-18T00:13:40;16.60;63.80
1812;DHT22;904;47.814;11.134;2022-07-18T00:16:09;16.60;64.10
1812;DHT22;904;47.814;11.134;2022-07-18T00:18:41;16.60;64.20
1812;DHT22;904;47.814;11.134;2022-07-18T00:21:10;16.70;64.50
1812;DHT22;904;47.814;11.134;2022-07-18T00:23:41;16.70;64.60
1812;DHT22;904;47.814;11.134;2022-07-18T00:26:09;16.60;64.20
1812;DHT22;904;47.814;11.134;2022-07-18T00:28:36;16.50;65.00
1812;DHT22;904;47.814;11.134;2022-07-18T00:31:08;16.40;65.10
1812;DHT22;904;47.814;11.134;2022-07-18T00:33:35;16.40;65.50
1812;DHT22;904;47.814;11.134;2022-07-18T00:36:03;16.30;65.50
1812;DHT22;904;47.814;11.134;2022-07-18T00:38:30;16.30;66.10
1812;DHT22;904;47.814;11.134;2022-07-18T00:40:59;16.30;66.00
1812;DHT22;904;47.814;11.134;2022-07-18T00:43:26;16.30;66.10
1812;DHT22;904;47.814;11.134;2022-07-18T00:45:59;16.40;66.30
1812;DHT22;904;47.814;11.134;2022-07-18T00:48:26;16.30;67.20
1812;DHT22;904;47.814;11.134;2022-07-18T00:50:54;16.30;66.80
1812;DHT22;904;47.814;11.134;2022-07-18T00:53:21;16.30;66.60
1812;DHT22;904;47.814;11.134;2022-07-18T00:55:54;16.30;66.80
1812;DHT22;904;47.814;11.134;2022-07-18T00:58:23;16.30;66.70
1812;DHT22;904;47.814;11.134;2022-07-18T01:00:52;16.20;67.20
1812;DHT22;904;47.814;11.134;2022-07-18T01:03:38;16.20;67.20
1812;DHT22;904;47.814;11.134;2022-07-18T01:06:05;16.20;67.10
1812;DHT22;904;47.814;11.134;2022-07-18T01:08:37;16.20;66.90
1812;DHT22;904;47.814;11.134;2022-07-18T01:11:05;16.10;67.30
1812;DHT22;904;47.814;11.134;2022-07-18T01:13:35;16.10;67.60
1812;DHT22;904;47.814;11.134;2022-07-18T01:16:04;16.10;68.00
1812;DHT22;904;47.814;11.134;2022-07-18T01:18:36;16.10;68.80
1812;DHT22;904;47.814;11.134;2022-07-18T01:21:05;16.00;68.90
1812;DHT22;904;47.814;11.134;2022-07-18T01:23:35;15.90;69.10
1812;DHT22;904;47.814;11.134;2022-07-18T01:26:03;15.80;69.20
1812;DHT22;904;47.814;11.134;2022-07-18T01:28:30;15.80;69.80
1812;DHT22;904;47.814;11.134;2022-07-18T01:30:58;15.70;71.10
1812;DHT22;904;47.814;11.134;2022-07-18T01:33:25;15.60;71.10
1812;DHT22;904;47.814;11.134;2022-07-18T01:35:52;15.60;71.60
1812;DHT22;904;47.814;11.134;2022-07-18T01:38:21;15.60;71.50
1812;DHT22;904;47.814;11.134;2022-07-18T01:40:53;15.70;71.60
1812;DHT22;904;47.814;11.134;2022-07-18T01:43:21;15.70;71.60
1812;DHT22;904;47.814;11.134;2022-07-18T01:45:58;15.80;71.80
1812;DHT22;904;47.814;11.134;2022-07-18T01:48:25;15.80;71.50
1812;DHT22;904;47.814;11.134;2022-07-18T01:50:52;15.80;71.50
1812;DHT22;904;47.814;11.134;2022-07-18T01:53:21;15.80;71.50
1812;DHT22;904;47.814;11.134;2022-07-18T01:55:52;15.80;71.00
1812;DHT22;904;47.814;11.134;2022-07-18T01:58:19;15.60;70.80
1812;DHT22;904;47.814;11.134;2022-07-18T02:00:49;15.60;71.50
1812;DHT22;904;47.814;11.134;2022-07-18T02:03:18;15.50;71.60
1812;DHT22;904;47.814;11.134;2022-07-18T02:05:45;15.50;71.80
1812;DHT22;904;47.814;11.134;2022-07-18T02:08:13;15.40;72.50
1812;DHT22;904;47.814;11.134;2022-07-18T02:10:41;15.40;73.40
1812;DHT22;904;47.814;11.134;2022-07-18T02:13:09;15.40;73.40
1812;DHT22;904;47.814;11.134;2022-07-18T02:15:36;15.30;73.20
1812;DHT22;904;47.814;11.134;2022-07-18T02:18:04;15.30;73.50
1812;DHT22;904;47.814;11.134;2022-07-18T02:20:31;15.20;73.50
1812;DHT22;904;47.814;11.134;2022-07-18T02:23:03;15.20;74.20
1812;DHT22;904;47.814;11.134;2022-07-18T02:25:30;15.10;74.50
1812;DHT22;904;47.814;11.134;2022-07-18T02:27:59;15.00;74.50
1812;DHT22;904;47.814;11.134;2022-07-18T02:30:26;15.10;74.50
1812;DHT22;904;47.814;11.134;2022-07-18T02:32:53;15.10;74.60
1812;DHT22;904;47.814;11.134;2022-07-18T02:35:21;15.10;74.20
1812;DHT22;904;47.814;11.134;2022-07-18T02:37:51;15.10;74.80
1812;DHT22;904;47.814;11.134;2022-07-18T02:40:20;15.10;74.70
1812;DHT22;904;47.814;11.134;2022-07-18T02:42:47;15.20;74.90
1812;DHT22;904;47.814;11.134;2022-07-18T02:45:15;15.20;75.00
1812;DHT22;904;47.814;11.134;2022-07-18T02:47:43;15.10;73.80
1812;DHT22;904;47.814;11.134;2022-07-18T02:50:11;15.10;73.70
1812;DHT22;904;47.814;11.134;2022-07-18T02:52:40;14.90;73.50
1812;DHT22;904;47.814;11.134;2022-07-18T02:55:13;14.90;74.10
1812;DHT22;904;47.814;11.134;2022-07-18T02:57:40;14.80;74.60
1812;DHT22;904;47.814;11.134;2022-07-18T03:00:11;14.80;75.10
1812;DHT22;904;47.814;11.134;2022-07-18T03:02:41;14.80;75.80
1812;DHT22;904;47.814;11.134;2022-07-18T03:05:10;14.80;76.00
1812;DHT22;904;47.814;11.134;2022-07-18T03:07:38;14.80;75.00
1812;DHT22;904;47.814;11.134;2022-07-18T03:10:06;14.80;75.40
1812;DHT22;904;47.814;11.134;2022-07-18T03:12:34;14.80;75.90
1812;DHT22;904;47.814;11.134;2022-07-18T03:15:01;14.80;76.10
1812;DHT22;904;47.814;11.134;2022-07-18T03:17:33;14.90;76.50
1812;DHT22;904;47.814;11.134;2022-07-18T03:20:02;14.90;76.30
1812;DHT22;904;47.814;11.134;2022-07-18T03:22:29;14.90;75.70
1812;DHT22;904;47.814;11.134;2022-07-18T03:24:58;14.90;75.60
1812;DHT22;904;47.814;11.134;2022-07-18T03:27:26;14.80;75.10
1812;DHT22;904;47.814;11.134;2022-07-18T03:29:53;14.80;75.20
1812;DHT22;904;47.814;11.134;2022-07-18T03:32:25;14.70;74.20
1812;DHT22;904;47.814;11.134;2022-07-18T03:34:52;14.60;73.90
1812;DHT22;904;47.814;11.134;2022-07-18T03:37:21;14.60;74.20
1812;DHT22;904;47.814;11.134;2022-07-18T03:39:51;14.50;74.90
1812;DHT22;904;47.814;11.134;2022-07-18T03:42:18;14.40;75.70
1812;DHT22;904;47.814;11.134;2022-07-18T03:44:45;14.30;76.00
1812;DHT22;904;47.814;11.134;2022-07-18T03:47:13;14.30;76.40
1812;DHT22;904;47.814;11.134;2022-07-18T03:49:40;14.30;76.80
1812;DHT22;904;47.814;11.134;2022-07-18T03:52:10;14.20;77.70
1812;DHT22;904;47.814;11.134;2022-07-18T03:54:39;14.20;78.00
1812;DHT22;904;47.814;11.134;2022-07-18T03:57:08;14.20;78.20
1812;DHT22;904;47.814;11.134;2022-07-18T03:59:36;14.20;77.60
1812;DHT22;904;47.814;11.134;2022-07-18T04:02:03;14.20;78.20
1812;DHT22;904;47.814;11.134;2022-07-18T04:04:35;14.20;78.80
1812;DHT22;904;47.814;11.134;2022-07-18T04:07:02;14.20;79.00
1812;DHT22;904;47.814;11.134;2022-07-18T04:09:30;14.30;79.00
1812;DHT22;904;47.814;11.134;2022-07-18T04:11:58;14.40;78.90
1812;DHT22;904;47.814;11.134;2022-07-18T04:14:27;14.40;78.40
1812;DHT22;904;47.814;11.134;2022-07-18T04:16:56;14.40;78.40
1812;DHT22;904;47.814;11.134;2022-07-18T04:19:24;14.30;78.50
1812;DHT22;904;47.814;11.134;2022-07-18T04:21:51;14.30;78.60
1812;DHT22;904;47.814;11.134;2022-07-18T04:24:18;14.40;79.20
1812;DHT22;904;47.814;11.134;2022-07-18T04:26:47;14.40;79.70
1812;DHT22;904;47.814;11.134;2022-07-18T04:29:16;14.40;79.80
1812;DHT22;904;47.814;11.134;2022-07-18T04:31:46;14.30;80.10
1812;DHT22;904;47.814;11.134;2022-07-18T04:34:13;14.30;80.30
1812;DHT22;904;47.814;11.134;2022-07-18T04:36:41;14.30;80.70
1812;DHT22;904;47.814;11.134;2022-07-18T04:39:10;14.40;80.80
1812;DHT22;904;47.814;11.134;2022-07-18T04:41:39;14.50;80.70
1812;DHT22;904;47.814;11.134;2022-07-18T04:44:06;14.50;81.90
1812;DHT22;904;47.814;11.134;2022-07-18T04:46:35;14.50;82.40
1812;DHT22;904;47.814;11.134;2022-07-18T04:49:02;14.50;82.40
1812;DHT22;904;47.814;11.134;2022-07-18T04:51:31;14.60;82.10
1812;DHT22;904;47.814;11.134;2022-07-18T04:53:59;14.70;82.20
1812;DHT22;904;47.814;11.134;2022-07-18T04:56:26;14.80;82.10
1812;DHT22;904;47.814;11.134;2022-07-18T04:58:53;15.00;81.90
1812;DHT22;904;47.814;11.134;2022-07-18T05:01:20;15.10;81.70
1812;DHT22;904;47.814;11.134;2022-07-18T05:03:49;15.20;82.20
1812;DHT22;904;47.814;11.134;2022-07-18T05:06:16;15.30;81.00
1812;DHT22;904;47.814;11.134;2022-07-18T05:08:43;15.40;80.60
1812;DHT22;904;47.814;11.134;2022-07-18T05:11:12;15.50;80.10
1812;DHT22;904;47.814;11.134;2022-07-18T05:13:39;15.60;80.10
1812;DHT22;904;47.814;11.134;2022-07-18T05:16:07;15.80;80.00
1812;DHT22;904;47.814;11.134;2022-07-18T05:18:34;15.80;79.40
1812;DHT22;904;47.814;11.134;2022-07-18T05:21:03;16.00;79.70
1812;DHT22;904;47.814;11.134;2022-07-18T05:23:30;16.10;79.60
1812;DHT22;904;47.814;11.134;2022-07-18T05:26:00;16.20;79.50
1812;DHT22;904;47.814;11.134;2022-07-18T05:28:29;16.30;79.50
1812;DHT22;904;47.814;11.134;2022-07-18T05:31:00;16.40;78.40
1812;DHT22;904;47.814;11.134;2022-07-18T05:33:30;16.50;78.50
1812;DHT22;904;47.814;11.134;2022-07-18T05:35:57;16.60;77.40
1812;DHT22;904;47.814;11.134;2022-07-18T05:38:26;16.60;78.30
1812;DHT22;904;47.814;11.134;2022-07-18T05:40:53;16.70;79.10
1812;DHT22;904;47.814;11.134;2022-07-18T05:43:21;16.80;79.10
1812;DHT22;904;47.814;11.134;2022-07-18T05:45:48;16.90;78.70
1812;DHT22;904;47.814;11.134;2022-07-18T05:48:15;17.00;78.10
1812;DHT22;904;47.814;11.134;2022-07-18T05:50:42;17.10;77.90
1812;DHT22;904;47.814;11.134;2022-07-18T05:53:10;17.20;78.20
1812;DHT22;904;47.814;11.134;2022-07-18T05:55:38;17.40;78.40
1812;DHT22;904;47.814;11.134;2022-07-18T05:58:06;17.50;78.60
1812;DHT22;904;47.814;11.134;2022-07-18T06:00:39;17.60;77.20
1812;DHT22;904;47.814;11.134;2022-07-18T06:03:08;17.70;77.30
1812;DHT22;904;47.814;11.134;2022-07-18T06:05:36;17.70;76.00
1812;DHT22;904;47.814;11.134;2022-07-18T06:08:04;17.90;76.30
1812;DHT22;904;47.814;11.134;2022-07-18T06:10:31;18.00;76.60
1812;DHT22;904;47.814;11.134;2022-07-18T06:13:04;18.10;77.10
1812;DHT22;904;47.814;11.134;2022-07-18T06:15:36;18.30;76.90
1812;DHT22;904;47.814;11.134;2022-07-18T06:18:09;18.40;76.20
1812;DHT22;904;47.814;11.134;2022-07-18T06:20:36;18.50;76.60
1812;DHT22;904;47.814;11.134;2022-07-18T06:23:04;18.60;76.80
1812;DHT22;904;47.814;11.134;2022-07-18T06:25:32;18.70;75.70
1812;DHT22;904;47.814;11.134;2022-07-18T06:28:06;18.80;73.50
1812;DHT22;904;47.814;11.134;2022-07-18T06:30:39;18.80;71.80
1812;DHT22;904;47.814;11.134;2022-07-18T06:33:10;18.90;72.30
1812;DHT22;904;47.814;11.134;2022-07-18T06:35:42;19.00;71.90
1812;DHT22;904;47.814;11.134;2022-07-18T06:38:09;19.00;71.90
1812;DHT22;904;47.814;11.134;2022-07-18T06:40:36;19.10;72.20
1812;DHT22;904;47.814;11.134;2022-07-18T06:43:03;19.30;72.00
1812;DHT22;904;47.814;11.134;2022-07-18T06:45:31;19.30;70.10
1812;DHT22;904;47.814;11.134;2022-07-18T06:47:59;19.40;69.40
1812;DHT22;904;47.814;11.134;2022-07-18T06:50:27;19.50;66.40
1812;DHT22;904;47.814;11.134;2022-07-18T06:52:54;19.60;65.30
1812;DHT22;904;47.814;11.134;2022-07-18T06:55:21;19.70;65.90
1812;DHT22;904;47.814;11.134;2022-07-18T06:57:48;19.80;67.10
1812;DHT22;904;47.814;11.134;2022-07-18T07:00:15;20.00;67.70
1812;DHT22;904;47.814;11.134;2022-07-18T07:02:45;20.10;69.10
1812;DHT22;904;47.814;11.134;2022-07-18T07:05:18;20.30;68.10
1812;DHT22;904;47.814;11.134;2022-07-18T07:07:45;20.40;68.40
1812;DHT22;904;47.814;11.134;2022-07-18T07:10:12;20.60;69.20
1812;DHT22;904;47.814;11.134;2022-07-18T07:12:40;20.80;70.10
1812;DHT22;904;47.814;11.134;2022-07-18T07:15:08;20.90;66.90
1812;DHT22;904;47.814;11.134;2022-07-18T07:17:35;21.00;67.90
1812;DHT22;904;47.814;11.134;2022-07-18T07:20:06;21.20;68.10
1812;DHT22;904;47.814;11.134;2022-07-18T07:22:41;21.30;67.70
1812;DHT22;904;47.814;11.134;2022-07-18T07:25:08;21.50;67.00
1812;DHT22;904;47.814;11.134;2022-07-18T07:27:38;21.60;65.80
1812;DHT22;904;47.814;11.134;2022-07-18T07:30:07;21.70;65.30
1812;DHT22;904;47.814;11.134;2022-07-18T07:32:35;21.80;64.90
1812;DHT22;904;47.814;11.134;2022-07-18T07:35:04;22.00;65.80
1812;DHT22;904;47.814;11.134;2022-07-18T07:37:32;22.10;65.60
1812;DHT22;904;47.814;11.134;2022-07-18T07:40:01;22.30;65.50
1812;DHT22;904;47.814;11.134;2022-07-18T07:42:28;22.40;64.80
1812;DHT22;904;47.814;11.134;2022-07-18T07:44:57;22.50;64.00
1812;DHT22;904;47.814;11.134;2022-07-18T07:47:24;22.60;61.90
1812;DHT22;904;47.814;11.134;2022-07-18T07:49:51;22.70;63.20
1812;DHT22;904;47.814;11.134;2022-07-18T07:52:19;22.90;61.40
1812;DHT22;904;47.814;11.134;2022-07-18T07:54:47;23.00;62.50
1812;DHT22;904;47.814;11.134;2022-07-18T07:57:17;23.10;61.20
1812;DHT22;904;47.814;11.134;2022-07-18T07:59:50;23.20;61.40
1812;DHT22;904;47.814;11.134;2022-07-18T08:02:17;23.40;61.00
1812;DHT22;904;47.814;11.134;2022-07-18T08:04:50;23.50;61.00
1812;DHT22;904;47.814;11.134;2022-07-18T08:07:22;23.60;60.00
1812;DHT22;904;47.814;11.134;2022-07-18T08:09:55;23.80;61.40
1812;DHT22;904;47.814;11.134;2022-07-18T08:12:22;23.90;60.10
1812;DHT22;904;47.814;11.134;2022-07-18T08:14:58;24.00;59.30
1812;DHT22;904;47.814;11.134;2022-07-18T08:17:25;24.20;58.00
1812;DHT22;904;47.814;11.134;2022-07-18T08:19:52;24.20;57.20
1812;DHT22;904;47.814;11.134;2022-07-18T08:22:27;24.40;57.30
1812;DHT22;904;47.814;11.134;2022-07-18T08:24:54;24.50;55.50
1812;DHT22;904;47.814;11.134;2022-07-18T08:27:21;24.60;55.90
1812;DHT22;904;47.814;11.134;2022-07-18T08:29:50;24.70;54.50
1812;DHT22;904;47.814;11.134;2022-07-18T08:32:18;24.80;53.70
1812;DHT22;904;47.814;11.134;2022-07-18T08:34:50;24.90;54.50
1812;DHT22;904;47.814;11.134;2022-07-18T08:37:18;25.10;51.20
1812;DHT22;904;47.814;11.134;2022-07-18T08:39:47;25.20;48.30
1812;DHT22;904;47.814;11.134;2022-07-18T08:42:15;25.30;46.70
1812;DHT22;904;47.814;11.134;2022-07-18T08:44:46;25.40;45.90
1812;DHT22;904;47.814;11.134;2022-07-18T08:47:14;25.60;45.90
1812;DHT22;904;47.814;11.134;2022-07-18T08:49:43;25.70;43.80
1812;DHT22;904;47.814;11.134;2022-07-18T08:52:16;25.80;41.60
1812;DHT22;904;47.814;11.134;2022-07-18T08:54:48;25.90;41.80
1812;DHT22;904;47.814;11.134;2022-07-18T08:57:16;26.10;43.20
1812;DHT22;904;47.814;11.134;2022-07-18T08:59:44;26.20;42.80
1812;DHT22;904;47.814;11.134;2022-07-18T09:02:11;26.30;39.80
1812;DHT22;904;47.814;11.134;2022-07-18T09:04:42;26.40;40.00
1812;DHT22;904;47.814;11.134;2022-07-18T09:07:23;26.50;38.40
1812;DHT22;904;47.814;11.134;2022-07-18T09:09:54;26.70;35.20
1812;DHT22;904;47.814;11.134;2022-07-18T09:12:23;26.80;35.30
1812;DHT22;904;47.814;11.134;2022-07-18T09:14:50;26.90;35.90
1812;DHT22;904;47.814;11.134;2022-07-18T09:17:23;27.00;37.60
1812;DHT22;904;47.814;11.134;2022-07-18T09:20:04;27.10;37.20
1812;DHT22;904;47.814;11.134;2022-07-18T09:22:33;27.20;35.80
1812;DHT22;904;47.814;11.134;2022-07-18T09:25:05;27.30;36.90
1812;DHT22;904;47.814;11.134;2022-07-18T09:27:37;27.40;33.60
1812;DHT22;904;47.814;11.134;2022-07-18T09:30:21;27.50;34.00
1812;DHT22;904;47.814;11.134;2022-07-18T09:32:50;27.60;33.10
1812;DHT22;904;47.814;11.134;2022-07-18T09:35:25;27.70;33.10
1812;DHT22;904;47.814;11.134;2022-07-18T09:37:59;27.80;34.30
1812;DHT22;904;47.814;11.134;2022-07-18T09:40:30;27.90;34.10
1812;DHT22;904;47.814;11.134;2022-07-18T09:42:59;27.90;34.00
1812;DHT22;904;47.814;11.134;2022-07-18T09:45:30;28.00;31.30
1812;DHT22;904;47.814;11.134;2022-07-18T09:48:04;28.10;32.30
1812;DHT22;904;47.814;11.134;2022-07-18T09:50:34;28.20;32.70
1812;DHT22;904;47.814;11.134;2022-07-18T09:53:12;28.30;31.80
1812;DHT22;904;47.814;11.134;2022-07-18T09:55:44;28.40;32.00
1812;DHT22;904;47.814;11.134;2022-07-18T09:58:18;28.40;31.30
1812;DHT22;904;47.814;11.134;2022-07-18T10:00:46;28.50;29.30
1812;DHT22;904;47.814;11.134;2022-07-18T10:03:18;28.60;30.90
1812;DHT22;904;47.814;11.134;2022-07-18T10:05:53;28.70;30.00
1812;DHT22;904;47.814;11.134;2022-07-18T10:08:23;28.80;29.80
1812;DHT22;904;47.814;11.134;2022-07-18T10:10:54;28.80;30.20
1812;DHT22;904;47.814;11.134;2022-07-18T10:13:23;28.90;30.90
1812;DHT22;904;47.814;11.134;2022-07-18T10:15:55;29.00;28.70
1812;DHT22;904;47.814;11.134;2022-07-18T10:18:23;29.10;30.00
1812;DHT22;904;47.814;11.134;2022-07-18T10:20:53;29.10;29.20
1812;DHT22;904;47.814;11.134;2022-07-18T10:23:25;29.30;31.40
1812;DHT22;904;47.814;11.134;2022-07-18T10:26:15;29.40;29.60
1812;DHT22;904;47.814;11.134;2022-07-18T10:32:03;29.50;29.70
1812;DHT22;904;47.814;11.134;2022-07-18T10:34:32;29.50;29.20
1812;DHT22;904;47.814;11.134;2022-07-18T10:37:10;29.60;30.90
1812;DHT22;904;47.814;11.134;2022-07-18T10:39:43;29.60;29.00
1812;DHT22;904;47.814;11.134;2022-07-18T10:42:19;29.70;28.00
1812;DHT22;904;47.814;11.134;2022-07-18T10:44:50;29.70;29.30
1812;DHT22;904;47.814;11.134;2022-07-18T10:47:20;29.70;29.90
1812;DHT22;904;47.814;11.134;2022-07-18T10:50:08;29.70;28.80
1812;DHT22;904;47.814;11.134;2022-07-18T10:52:56;29.80;29.60
1812;DHT22;904;47.814;11.134;2022-07-18T10:55:31;29.90;29.50
1812;DHT22;904;47.814;11.134;2022-07-18T10:58:21;30.00;29.50
1812;DHT22;904;47.814;11.134;2022-07-18T11:00:54;30.10;30.00
1812;DHT22;904;47.814;11.134;2022-07-18T11:03:27;30.20;30.00
1812;DHT22;904;47.814;11.134;2022-07-18T11:05:56;30.20;28.80
1812;DHT22;904;47.814;11.134;2022-07-18T11:08:23;30.30;28.50
1812;DHT22;904;47.814;11.134;2022-07-18T11:11:11;30.40;28.00
1812;DHT22;904;47.814;11.134;2022-07-18T11:13:41;30.40;29.60
1812;DHT22;904;47.814;11.134;2022-07-18T11:16:10;30.50;28.50
1812;DHT22;904;47.814;11.134;2022-07-18T11:19:15;30.50;27.10
1812;DHT22;904;47.814;11.134;2022-07-18T11:21:45;30.40;28.40
1812;DHT22;904;47.814;11.134;2022-07-18T11:24:13;30.50;26.90
1812;DHT22;904;47.814;11.134;2022-07-18T11:26:45;30.50;27.30
1812;DHT22;904;47.814;11.134;2022-07-18T11:29:17;30.50;26.60
1812;DHT22;904;47.814;11.134;2022-07-18T11:31:48;30.50;26.80
1812;DHT22;904;47.814;11.134;2022-07-18T11:34:15;30.50;27.60
1812;DHT22;904;47.814;11.134;2022-07-18T11:36:44;30.50;26.80
1812;DHT22;904;47.814;11.134;2022-07-18T11:39:27;30.60;27.50
1812;DHT22;904;47.814;11.134;2022-07-18T11:41:59;30.60;27.20
1812;DHT22;904;47.814;11.134;2022-07-18T11:44:29;30.60;27.60
1812;DHT22;904;47.814;11.134;2022-07-18T11:47:06;30.70;27.50
1812;DHT22;904;47.814;11.134;2022-07-18T11:49:53;30.70;26.50
1812;DHT22;904;47.814;11.134;2022-07-18T11:52:25;30.60;26.80
1812;DHT22;904;47.814;11.134;2022-07-18T11:54:52;30.60;27.00
1812;DHT22;904;47.814;11.134;2022-07-18T11:57:26;30.60;26.60
1812;DHT22;904;47.814;11.134;2022-07-18T11:59:55;30.70;28.00
1812;DHT22;904;47.814;11.134;2022-07-18T12:02:25;30.70;27.10
1812;DHT22;904;47.814;11.134;2022-07-18T12:04:57;30.80;26.80
1812;DHT22;904;47.814;11.134;2022-07-18T12:07:29;30.90;28.50
1812;DHT22;904;47.814;11.134;2022-07-18T12:10:13;30.90;28.70
1812;DHT22;904;47.814;11.134;2022-07-18T12:12:43;31.00;26.30
1812;DHT22;904;47.814;11.134;2022-07-18T12:15:17;31.00;27.30
1812;DHT22;904;47.814;11.134;2022-07-18T12:17:46;31.00;26.40
1812;DHT22;904;47.814;11.134;2022-07-18T12:20:21;31.00;26.30
1812;DHT22;904;47.814;11.134;2022-07-18T12:23:07;31.10;26.80
1812;DHT22;904;47.814;11.134;2022-07-18T12:25:55;31.10;26.30
1812;DHT22;904;47.814;11.134;2022-07-18T12:28:25;31.10;25.20
1812;DHT22;904;47.814;11.134;2022-07-18T12:30:54;31.10;25.30
1812;DHT22;904;47.814;11.134;2022-07-18T12:33:21;31.10;26.00
1812;DHT22;904;47.814;11.134;2022-07-18T12:35:55;31.20;26.10
1812;DHT22;904;47.814;11.134;2022-07-18T12:38:23;31.20;27.10
1812;DHT22;904;47.814;11.134;2022-07-18T12:41:01;31.30;27.20
1812;DHT22;904;47.814;11.134;2022-07-18T12:43:31;31.30;28.50
1812;DHT22;904;47.814;11.134;2022-07-18T12:46:01;31.40;26.60
1812;DHT22;904;47.814;11.134;2022-07-18T12:48:37;31.40;25.10
1812;DHT22;904;47.814;11.134;2022-07-18T12:51:05;31.30;25.00
1812;DHT22;904;47.814;11.134;2022-07-18T12:53:38;31.20;25.30
1812;DHT22;904;47.814;11.134;2022-07-18T12:56:08;31.20;26.50
1812;DHT22;904;47.814;11.134;2022-07-18T12:58:35;31.20;26.80
1812;DHT22;904;47.814;11.134;2022-07-18T13:01:06;31.30;27.30
1812;DHT22;904;47.814;11.134;2022-07-18T13:03:33;31.30;27.10
1812;DHT22;904;47.814;11.134;2022-07-18T13:06:05;31.30;27.00
1812;DHT22;904;47.814;11.134;2022-07-18T13:08:33;31.40;27.50
1812;DHT22;904;47.814;11.134;2022-07-18T13:11:00;31.50;27.20
1812;DHT22;904;47.814;11.134;2022-07-18T13:13:28;31.50;26.10
1812;DHT22;904;47.814;11.134;2022-07-18T13:15:59;31.50;25.80
1812;DHT22;904;47.814;11.134;2022-07-18T13:18:28;31.50;26.60
1812;DHT22;904;47.814;11.134;2022-07-18T13:20:57;31.60;26.60
1812;DHT22;904;47.814;11.134;2022-07-18T13:23:24;31.60;26.20
1812;DHT22;904;47.814;11.134;2022-07-18T13:25:52;31.50;25.50
1812;DHT22;904;47.814;11.134;2022-07-18T13:28:25;31.50;25.40
1812;DHT22;904;47.814;11.134;2022-07-18T13:30:53;31.50;25.60
1812;DHT22;904;47.814;11.134;2022-07-18T13:33:21;31.50;25.60
1812;DHT22;904;47.814;11.134;2022-07-18T13:35:53;31.40;25.20
1812;DHT22;904;47.814;11.134;2022-07-18T13:38:21;31.40;24.60
1812;DHT22;904;47.814;11.134;2022-07-18T13:40:48;31.30;24.20
1812;DHT22;904;47.814;11.134;2022-07-18T13:43:22;31.30;24.50
1812;DHT22;904;47.814;11.134;2022-07-18T13:45:51;31.20;24.70
1812;DHT22;904;47.814;11.134;2022-07-18T13:48:19;31.20;24.90
1812;DHT22;904;47.814;11.134;2022-07-18T13:50:52;31.20;24.90
1812;DHT22;904;47.814;11.134;2022-07-18T13:53:24;31.10;25.20
1812;DHT22;904;47.814;11.134;2022-07-18T13:55:51;31.10;25.20
1812;DHT22;904;47.814;11.134;2022-07-18T13:58:18;31.10;25.00
1812;DHT22;904;47.814;11.134;2022-07-18T14:00:47;31.00;24.60
1812;DHT22;904;47.814;11.134;2022-07-18T14:03:19;31.00;24.90
1812;DHT22;904;47.814;11.134;2022-07-18T14:05:46;31.00;24.80
1812;DHT22;904;47.814;11.134;2022-07-18T14:08:15;31.00;24.80
1812;DHT22;904;47.814;11.134;2022-07-18T14:10:43;31.00;25.40
1812;DHT22;904;47.814;11.134;2022-07-18T14:13:16;31.00;24.80
1812;DHT22;904;47.814;11.134;2022-07-18T14:15:43;31.00;25.10
1812;DHT22;904;47.814;11.134;2022-07-18T14:18:10;31.00;25.10
1812;DHT22;904;47.814;11.134;2022-07-18T14:20:38;31.00;24.60
1812;DHT22;904;47.814;11.134;2022-07-18T14:23:05;31.00;25.40
1812;DHT22;904;47.814;11.134;2022-07-18T14:25:34;31.00;25.50
1812;DHT22;904;47.814;11.134;2022-07-18T14:28:03;30.90;24.70
1812;DHT22;904;47.814;11.134;2022-07-18T14:30:30;31.00;24.60
1812;DHT22;904;47.814;11.134;2022-07-18T14:33:02;30.90;24.20
1812;DHT22;904;47.814;11.134;2022-07-18T14:35:44;30.90;24.50
1812;DHT22;904;47.814;11.134;2022-07-18T14:38:11;30.90;24.20
1812;DHT22;904;47.814;11.134;2022-07-18T14:40:40;30.80;24.40
1812;DHT22;904;47.814;11.134;2022-07-18T14:43:07;30.80;24.40
1812;DHT22;904;47.814;11.134;2022-07-18T14:45:35;30.80;24.40
1812;DHT22;904;47.814;11.134;2022-07-18T14:48:08;30.70;24.90
1812;DHT22;904;47.814;11.134;2022-07-18T14:50:35;30.70;25.50
1812;DHT22;904;47.814;11.134;2022-07-18T14:53:02;30.80;25.20
1812;DHT22;904;47.814;11.134;2022-07-18T14:55:34;30.70;25.00
1812;DHT22;904;47.814;11.134;2022-07-18T14:58:03;30.70;25.20
1812;DHT22;904;47.814;11.134;2022-07-18T15:00:30;30.60;25.00
1812;DHT22;904;47.814;11.134;2022-07-18T15:03:01;30.60;25.50
1812;DHT22;904;47.814;11.134;2022-07-18T15:05:29;30.60;25.30
1812;DHT22;904;47.814;11.134;2022-07-18T15:07:56;30.60;25.10
1812;DHT22;904;47.814;11.134;2022-07-18T15:10:23;30.60;24.30
1812;DHT22;904;47.814;11.134;2022-07-18T15:12:52;30.50;24.10
1812;DHT22;904;47.814;11.134;2022-07-18T15:15:20;30.50;23.70
1812;DHT22;904;47.814;11.134;2022-07-18T15:17:49;30.50;24.40
1812;DHT22;904;47.814;11.134;2022-07-18T15:20:16;30.40;24.70
1812;DHT22;904;47.814;11.134;2022-07-18T15:22:43;30.40;26.00
1812;DHT22;904;47.814;11.134;2022-07-18T15:28:10;30.30;25.10
1812;DHT22;904;47.814;11.134;2022-07-18T15:30:38;30.20;26.00
1812;DHT22;904;47.814;11.134;2022-07-18T15:33:05;30.20;25.50
1812;DHT22;904;47.814;11.134;2022-07-18T15:35:33;30.10;26.20
1812;DHT22;904;47.814;11.134;2022-07-18T15:38:01;30.00;26.00
1812;DHT22;904;47.814;11.134;2022-07-18T15:40:28;30.00;26.50
1812;DHT22;904;47.814;11.134;2022-07-18T15:42:55;30.00;26.00
1812;DHT22;904;47.814;11.134;2022-07-18T15:45:24;29.90;25.40
1812;DHT22;904;47.814;11.134;2022-07-18T15:47:57;29.90;26.00
1812;DHT22;904;47.814;11.134;2022-07-18T15:50:29;29.80;25.50
1812;DHT22;904;47.814;11.134;2022-07-18T15:52:56;29.70;25.50
1812;DHT22;904;47.814;11.134;2022-07-18T15:55:24;29.70;24.70
1812;DHT22;904;47.814;11.134;2022-07-18T15:57:52;29.60;26.60
1812;DHT22;904;47.814;11.134;2022-07-18T16:00:19;29.50;26.50
1812;DHT22;904;47.814;11.134;2022-07-18T16:02:47;29.50;26.60
1812;DHT22;904;47.814;11.134;2022-07-18T16:05:18;29.40;26.70
1812;DHT22;904;47.814;11.134;2022-07-18T16:07:46;29.50;26.60
1812;DHT22;904;47.814;11.134;2022-07-18T16:10:17;29.40;26.60
1812;DHT22;904;47.814;11.134;2022-07-18T16:12:46;29.40;27.70
1812;DHT22;904;47.814;11.134;2022-07-18T16:15:14;29.40;27.30
1812;DHT22;904;47.814;11.134;2022-07-18T16:17:41;29.40;26.90
1812;DHT22;904;47.814;11.134;2022-07-18T16:20:11;29.40;27.20
1812;DHT22;904;47.814;11.134;2022-07-18T16:22:42;29.40;26.90
1812;DHT22;904;47.814;11.134;2022-07-18T16:25:10;29.40;27.10